Latest Weather Observations for Truscott

IDD60801

Issued at 10:01 pm CST Tuesday 25 April 2017 (issued every 30 minutes, with the page automatically refreshed every 10 minutes)

About weather observations | Map of weather stations | Latest weather observations for NT | Other Formats
Station Details ID: 001020 Name: TRUSCOTT Lat: -14.09 Lon: 126.39 Height: 51.0 m
Data from the previous 72 hours. | See also: Recent months at Truscott
Date/Time
CST
Temp
°C
App
Temp
°C
Dew
Point
°C
Rel
Hum
%
Delta-T
°C
Wind Press
QNH
hPa
Press
MSL
hPa
Rain since
9am
mm
Dir  Spd
km/h
Gust
km/h
Spd
kts
Gust
kts
25/10:00pm 27.2 32.7 23.4 80 2.6 CALM 0 0 0 0 1012.5 - 0.0
25/09:30pm 27.1 32.4 23.1 79 2.7 CALM 0 0 0 0 1012.2 - 0.0
25/09:00pm 27.5 32.7 22.9 76 3.1 CALM 0 0 0 0 1011.7 - 0.0
25/08:30pm 28.5 33.4 23.0 72 3.8 N 2 6 1 3 1011.3 - 0.0
25/08:00pm 29.3 33.2 22.5 67 4.6 N 6 7 3 4 1010.7 - 0.0
25/07:30pm 29.8 34.1 23.3 68 4.5 N 6 7 3 4 1010.4 1010.0 0.0
25/07:00pm 30.3 34.1 22.7 64 5.2 N 7 13 4 7 1010.0 - 0.0
25/06:30pm 31.7 34.8 21.5 54 6.9 NNW 7 11 4 6 1009.5 - 0.0
25/06:00pm 32.6 35.4 20.8 49 7.9 NNW 7 11 4 6 1009.0 - 0.0
25/05:30pm 33.3 35.4 20.1 45 8.8 NW 9 15 5 8 1008.7 - 0.0
25/05:00pm 33.2 35.1 19.7 45 8.9 N 9 13 5 7 1008.6 - 0.0
25/04:30pm 33.6 35.6 20.0 44 9.1 NNW 9 15 5 8 1008.4 1008.0 0.0
25/04:00pm 33.9 36.2 19.9 43 9.3 N 7 13 4 7 1008.3 - 0.0
25/03:30pm 33.2 35.0 20.4 47 8.6 WNW 11 15 6 8 1008.6 - 0.0
25/03:00pm 33.0 35.2 20.5 47 8.4 N 9 15 5 8 1009.0 - 0.0
25/02:30pm 34.4 34.2 16.7 34 11.3 E 13 20 7 11 1009.4 - 0.0
25/02:00pm 33.5 36.3 21.6 49 8.1 NW 9 13 5 7 1009.7 - 0.0
25/01:30pm 32.9 35.0 21.7 51 7.6 W 13 17 7 9 1010.2 1009.8 0.0
25/01:00pm 33.0 34.8 21.2 50 8.0 WSW 13 20 7 11 1010.6 - 0.0
25/12:30pm 34.3 36.8 20.3 44 9.4 NW 7 13 4 7 1011.2 - 0.0
25/12:00pm 33.4 35.3 19.8 44 9.0 W 9 13 5 7 1011.5 - 0.0
25/11:30am 32.9 35.0 21.7 51 7.6 WSW 13 19 7 10 1011.9 - 0.0
25/11:00am 32.2 34.0 21.1 52 7.5 WSW 13 17 7 9 1012.3 - 0.0
25/10:30am 32.0 33.6 19.9 48 8.0 SW 11 17 6 9 1012.4 1012.0 0.0
25/10:00am 31.0 32.9 20.6 54 6.9 SW 11 17 6 9 1012.2 - 0.0
25/09:30am 29.6 32.9 21.8 63 5.3 SW 7 11 4 6 1012.2 - 0.0
25/09:00am 29.1 32.7 22.1 66 4.7 SSW 6 9 3 5 1012.1 - 0.0
25/08:30am 27.9 32.7 22.1 70 3.9 CALM 0 0 0 0 1012.0 - 0.0
25/08:00am 25.9 30.9 23.2 85 1.8 S 2 6 1 3 1011.6 - 0.0
25/07:30am 25.7 29.6 22.6 83 2.1 SSW 6 9 3 5 1011.2 1010.8 0.0
25/07:00am 25.8 29.0 21.7 78 2.7 SSW 7 9 4 5 1011.0 - 0.0
25/06:30am 27.0 30.1 21.5 72 3.7 SSW 7 11 4 6 1010.7 - 0.0
25/06:00am 27.1 30.3 22.3 75 3.2 SSW 9 11 5 6 1010.5 - 0.0
25/05:30am 27.1 30.9 22.7 77 3.0 SSW 7 9 4 5 1010.5 - 0.0
25/05:00am 27.2 30.9 23.2 79 2.7 SW 9 11 5 6 1010.4 - 0.0
25/04:30am 27.5 31.5 23.1 77 3.0 SW 7 9 4 5 1010.5 1010.1 0.0
25/04:00am 28.1 31.7 23.0 74 3.5 WSW 9 11 5 6 1010.4 - 0.0
25/03:30am 27.7 31.1 23.3 77 3.0 SW 11 13 6 7 1010.7 - 0.0
25/03:00am 27.5 31.9 23.5 79 2.7 SSW 6 7 3 4 1010.8 - 0.0
25/02:30am 27.0 31.8 24.1 84 2.0 SW 6 7 3 4 1011.2 - 0.0
25/02:00am 26.3 32.3 24.2 88 1.5 CALM 0 0 0 0 1011.4 - 0.0
25/01:30am 26.5 32.5 24.3 88 1.5 CALM 0 0 0 0 1011.7 1011.3 0.0
25/01:00am 26.4 32.2 23.9 86 1.7 CALM 0 0 0 0 1012.1 - 0.0
25/12:30am 26.6 32.4 23.9 85 1.9 CALM 0 0 0 0 1012.2 - 0.0
25/12:00am 26.7 32.3 23.6 83 2.1 CALM 0 0 0 0 1012.3 - 0.0
 
Date/Time
CST
Temp
°C
App
Temp
°C
Dew
Point
°C
Rel
Hum
%
Delta-T
°C
Wind Press
QNH
hPa
Press
MSL
hPa
Rain since
9am
mm
Dir  Spd
km/h
Gust
km/h
Spd
kts
Gust
kts
24/11:30pm 27.2 31.4 23.2 79 2.7 WSW 6 7 3 4 1012.4 - 0.0
24/11:00pm 28.2 32.5 23.3 75 3.4 WSW 6 7 3 4 1012.5 - 0.0
24/10:30pm 28.4 32.6 23.1 73 3.6 W 6 9 3 5 1012.7 1012.3 0.0
24/10:00pm 27.9 32.2 23.3 76 3.2 W 6 7 3 4 1012.7 - 0.0
24/09:30pm 28.1 32.0 22.6 72 3.7 WNW 6 7 3 4 1012.7 - 0.0
24/09:00pm 28.7 32.4 22.2 68 4.4 NW 6 7 3 4 1012.4 - 0.0
24/08:30pm 29.2 32.7 21.9 64 4.9 NW 6 9 3 5 1011.8 - 0.0
24/08:00pm 29.4 33.2 22.4 66 4.8 NW 6 9 3 5 1011.4 - 0.0
24/07:30pm 29.8 33.5 22.5 65 5.0 NW 7 9 4 5 1011.0 1010.6 0.0
24/07:00pm 29.9 33.5 23.1 67 4.7 NNW 9 13 5 7 1010.8 - 0.0
24/06:30pm 30.4 33.6 23.1 65 5.0 N 11 15 6 8 1010.1 - 0.0
24/06:00pm 31.2 33.9 22.2 58 6.1 N 11 17 6 9 1009.6 - 0.0
24/05:30pm 32.1 34.5 21.6 53 7.1 NNW 11 15 6 8 1009.2 - 0.0
24/05:00pm 32.8 35.4 22.0 53 7.4 NW 11 17 6 9 1009.0 - 0.0
24/04:30pm 33.3 35.7 21.5 50 8.0 WNW 11 17 6 9 1008.8 1008.4 0.0
24/04:00pm 33.4 35.6 21.9 51 7.8 WNW 13 17 7 9 1008.8 - 0.0
24/03:30pm 33.8 35.6 21.2 47 8.5 WNW 13 20 7 11 1008.9 - 0.0
24/03:00pm 33.2 34.2 21.0 48 8.2 W 17 20 9 11 1009.3 - 0.0
24/02:30pm 33.4 36.0 21.9 51 7.8 W 11 15 6 8 1009.7 - 0.0
24/02:00pm 33.5 35.5 21.6 49 8.1 WSW 13 20 7 11 1010.0 - 0.0
24/01:30pm 32.8 35.7 21.0 50 7.9 WNW 7 15 4 8 1010.4 1010.0 0.0
24/01:00pm 32.5 34.4 21.4 52 7.5 W 13 19 7 10 1011.1 - 0.0
24/12:30pm 32.2 34.5 21.4 53 7.3 W 11 19 6 10 1011.6 - 0.0
24/12:00pm 32.1 34.5 21.6 53 7.1 W 11 20 6 11 1012.1 - 0.0
24/11:30am 31.6 33.7 21.7 55 6.7 SW 13 19 7 10 1012.7 - 0.0
24/11:00am 31.3 33.6 22.0 57 6.3 SW 13 22 7 12 1013.0 - 0.0
24/10:30am 31.0 33.4 22.3 60 5.9 SW 13 20 7 11 1013.2 1012.8 0.0
24/10:00am 30.4 32.6 22.6 63 5.3 SW 15 20 8 11 1013.1 - 0.0
24/09:30am 29.7 31.9 23.2 68 4.5 SW 17 22 9 12 1012.9 - 0.0
24/09:00am 28.6 31.1 23.1 72 3.8 SSW 15 20 8 11 1012.9 - 0.0
24/08:30am 27.8 31.2 24.0 80 2.6 SSW 13 17 7 9 1012.8 - 0.0
24/08:00am 26.8 30.7 24.3 86 1.7 SSW 11 15 6 8 1012.4 - 0.0
24/07:30am 26.0 29.9 24.2 90 1.2 SW 11 15 6 8 1012.1 1011.7 0.0
24/07:00am 25.9 30.0 23.9 89 1.4 SSW 9 13 5 7 1011.7 - 0.0
24/06:30am 26.0 30.1 24.0 89 1.4 SW 9 13 5 7 1011.4 - 0.0
24/06:00am 26.6 30.8 24.1 86 1.7 SSW 9 13 5 7 1011.2 - 0.0
24/05:30am 26.7 31.5 24.4 87 1.6 SW 7 9 4 5 1011.1 - 0.0
24/05:00am 26.7 32.1 25.1 91 1.1 SW 6 7 3 4 1010.9 - 0.0
24/04:30am 25.5 31.6 24.5 94 0.7 CALM 0 0 0 0 1010.7 1010.3 0.0
24/04:00am 25.4 31.5 24.4 94 0.7 CALM 0 0 0 0 1010.5 - 0.0
24/03:30am 25.6 31.7 24.4 93 0.8 CALM 0 0 0 0 1010.6 - 0.0
24/03:00am 25.9 32.0 24.5 92 1.0 CALM 0 0 0 0 1010.9 - 0.0
24/02:30am 26.0 32.2 24.6 92 1.0 CALM 0 0 0 0 1011.4 - 0.0
24/02:00am 26.0 32.0 24.2 90 1.2 CALM 0 0 0 0 1011.8 - 0.0
24/01:30am 26.0 32.1 24.4 91 1.1 CALM 0 0 0 0 1012.0 1011.6 0.0
24/01:00am 26.4 32.5 24.4 89 1.4 CALM 0 0 0 0 1012.5 - 0.0
24/12:30am 26.5 32.5 24.2 87 1.6 CALM 0 0 0 0 1012.6 - 0.0
24/12:00am 26.2 32.2 24.2 89 1.4 CALM 0 0 0 0 1012.6 - 0.0
 
Date/Time
CST
Temp
°C
App
Temp
°C
Dew
Point
°C
Rel
Hum
%
Delta-T
°C
Wind Press
QNH
hPa
Press
MSL
hPa
Rain since
9am
mm
Dir  Spd
km/h
Gust
km/h
Spd
kts
Gust
kts
23/11:30pm 26.4 32.4 24.2 88 1.5 CALM 0 0 0 0 1012.7 - 0.0
23/11:00pm 26.7 32.7 24.2 86 1.7 CALM 0 0 0 0 1012.7 - 0.0
23/10:30pm 26.7 32.5 24.0 85 1.9 CALM 0 0 0 0 1012.8 1012.4 0.0
23/10:00pm 26.9 31.8 24.4 86 1.7 NNE 6 7 3 4 1012.9 - 0.0
23/09:30pm 27.4 32.8 23.2 78 2.9 CALM 0 0 0 0 1012.8 - 0.0
23/09:00pm 28.0 32.4 23.4 76 3.2 NNE 6 9 3 5 1012.3 - 0.0
23/08:30pm 28.7 34.0 23.1 71 3.8 CALM 0 6 0 3 1012.1 - 0.0
23/08:00pm 29.0 32.9 23.0 70 4.1 N 7 11 4 6 1011.0 - 0.0
23/07:30pm 29.2 32.8 22.4 66 4.6 N 7 9 4 5 1010.9 1010.5 0.0
23/07:00pm 29.9 32.8 21.8 62 5.5 NNE 9 13 5 7 1010.6 - 0.0
23/06:30pm 30.6 33.1 21.7 59 6.0 N 11 17 6 9 1010.3 - 0.0
23/06:00pm 31.2 33.1 21.4 56 6.6 N 13 19 7 10 1009.9 - 0.0
23/05:30pm 31.5 33.5 22.2 57 6.3 N 15 20 8 11 1009.6 - 0.0
23/05:00pm 32.0 34.3 22.1 55 6.7 N 13 19 7 10 1009.4 - 0.0
23/04:30pm 32.1 34.6 23.1 59 6.2 N 15 22 8 12 1009.0 1008.6 0.0
23/04:00pm 31.9 33.5 21.4 53 7.1 N 15 22 8 12 1009.0 - 0.0
23/03:30pm 32.4 34.6 21.9 54 7.1 N 13 22 7 12 1008.9 - 0.0
23/03:00pm 32.7 34.9 21.2 50 7.8 N 11 17 6 9 1009.3 - 0.0
23/02:30pm 33.1 36.1 21.3 50 8.0 N 7 11 4 6 1009.6 - 0.0
23/02:00pm 33.2 36.5 21.4 50 8.0 NE 6 11 3 6 1010.0 - 0.0
23/01:30pm 33.1 36.4 21.9 51 7.6 W 7 11 4 6 1010.4 1010.0 0.0
23/01:00pm 32.6 35.4 21.5 52 7.5 NW 9 13 5 7 1010.8 - 0.0
23/12:30pm 32.4 35.8 21.6 53 7.3 SSW 6 11 3 6 1011.3 - 0.0
23/12:00pm 31.9 35.4 22.9 59 6.2 W 9 13 5 7 1011.8 - 0.0
23/11:30am 31.9 35.2 23.2 60 6.0 WNW 11 17 6 9 1012.2 - 0.0
23/11:00am 31.5 34.8 22.5 59 6.2 WSW 9 17 5 9 1012.6 - 0.0
23/10:30am 31.5 34.2 22.8 60 6.0 SW 13 19 7 10 1012.7 1012.3 0.0
23/10:00am 30.8 34.3 23.5 65 5.0 SW 11 15 6 8 1012.6 - 0.0
23/09:30am 30.0 33.7 23.9 70 4.2 SW 11 17 6 9 1012.3 - 0.0
23/09:00am 29.3 33.8 24.6 76 3.3 SW 9 13 5 7 1012.1 - 0.0
23/08:30am 28.5 33.8 25.3 83 2.3 SSW 7 11 4 6 1011.8 - 0.0
23/08:00am 27.7 33.2 26.1 91 1.1 SSW 9 11 5 6 1011.5 - 0.0
23/07:30am 26.8 32.1 25.8 94 0.7 SSW 9 13 5 7 1010.9 1010.5 0.0
23/07:00am 26.7 32.1 25.5 93 0.8 SW 7 11 4 6 1010.4 - 0.0
23/06:30am 26.7 32.1 25.5 93 0.8 SSW 7 9 4 5 1010.1 - 0.0
23/06:00am 26.1 31.5 25.4 96 0.5 SSW 7 9 4 5 1010.0 - 0.0
23/05:30am 25.1 31.1 24.2 95 0.6 CALM 0 0 0 0 1010.2 - 0.0
23/05:00am 25.4 30.3 24.4 94 0.7 S 6 7 3 4 1010.3 - 0.0
23/04:30am 25.5 31.1 24.3 93 0.8 S 2 6 1 3 1010.5 1010.1 0.0
23/04:00am 25.8 30.6 24.2 91 1.1 SW 6 7 3 4 1010.5 - 0.0
23/03:30am 26.0 32.1 24.4 91 1.1 CALM 0 0 0 0 1010.5 - 0.0
23/03:00am 26.0 32.0 24.2 90 1.2 CALM 0 6 0 3 1010.7 - 0.0
23/02:30am 26.2 32.3 24.4 90 1.2 CALM 0 0 0 0 1011.0 - 0.0
23/02:00am 26.3 32.3 24.3 89 1.4 CALM 0 0 0 0 1011.3 - 0.0
23/01:30am 26.5 32.5 24.2 87 1.6 CALM 0 0 0 0 1011.4 1011.0 0.0
23/01:00am 26.7 32.5 24.0 85 1.9 CALM 0 0 0 0 1011.9 - 0.0
23/12:30am 26.8 32.7 24.1 85 1.9 CALM 0 0 0 0 1011.9 - 0.0
23/12:00am 26.9 32.9 24.2 85 1.9 CALM 0 0 0 0 1012.1 - 0.0

Other Formats:

Comma delimited format used in spreadsheet applications
http://www.bom.gov.au/fwo/IDD60801/IDD60801.95101.axf

JavaScript Object Notation format (JSON) in row-major order
http://www.bom.gov.au/fwo/IDD60801/IDD60801.95101.json